Time;durP1;ratioP1;P1;durP2;ratioP2;P2;SDS_P1;SDS_P2;PMS_P1;PMS_P2;Temp;Humidity;BMP_temperature;BMP_pressure;BME280_temperature;BME280_humidity;BME280_pressure;Samples;Min_cycle;Max_cycle;Signal;HPM_P1;HPM_P2
2021/01/05 00:01:32;;;;;;;19.63;10.02;;;3.60;99.90;;;;;;5051108;28;20531;-61
2021/01/05 00:03:58;;;;;;;17.58;9.45;;;3.60;99.90;;;;;;5052950;28;20029;-60
2021/01/05 00:06:23;;;;;;;17.98;10.98;;;3.70;99.90;;;;;;5050099;28;20110;-61
2021/01/05 00:08:49;;;;;;;21.17;11.43;;;3.70;99.90;;;;;;5051180;28;20025;-60
2021/01/05 00:11:15;;;;;;;19.90;10.80;;;3.70;99.90;;;;;;5051186;28;20094;-58
2021/01/05 00:13:40;;;;;;;22.58;11.52;;;3.60;99.90;;;;;;5052788;28;20045;-61
2021/01/05 00:16:06;;;;;;;21.08;10.77;;;3.50;99.90;;;;;;5050711;28;20037;-63
2021/01/05 00:18:33;;;;;;;17.45;11.65;;;3.50;99.90;;;;;;5051296;28;20029;-59
2021/01/05 00:20:59;;;;;;;21.90;11.57;;;3.60;99.90;;;;;;5051365;28;20041;-66
2021/01/05 00:23:24;;;;;;;16.98;10.70;;;3.70;99.90;;;;;;5050993;28;20021;-59
2021/01/05 00:25:50;;;;;;;18.58;11.80;;;3.70;99.90;;;;;;5051791;28;20068;-58
2021/01/05 00:28:16;;;;;;;22.48;11.10;;;3.80;99.90;;;;;;5050387;28;20124;-60
2021/01/05 00:30:41;;;;;;;17.75;10.40;;;3.70;99.90;;;;;;5051181;28;20116;-61
2021/01/05 00:33:07;;;;;;;21.65;11.35;;;3.70;99.90;;;;;;5052718;28;20029;-59
2021/01/05 00:35:36;;;;;;;19.42;10.60;;;3.70;99.90;;;;;;5053135;28;20082;-62
2021/01/05 00:38:07;;;;;;;24.83;11.93;;;3.60;99.90;;;;;;5051960;28;20055;-60
2021/01/05 00:40:33;;;;;;;23.17;11.63;;;3.60;99.90;;;;;;5051111;28;20037;-66
2021/01/05 00:42:59;;;;;;;18.33;11.27;;;3.60;99.90;;;;;;5053282;28;20025;-61
2021/01/05 00:45:29;;;;;;;20.85;13.05;;;3.70;99.90;;;;;;5055412;28;20540;-61
2021/01/05 00:47:55;;;;;;;20.88;11.55;;;3.70;99.90;;;;;;5056526;28;20017;-65
2021/01/05 00:50:21;;;;;;;19.42;10.35;;;3.80;99.90;;;;;;5054430;28;20079;-61
2021/01/05 00:52:47;;;;;;;21.23;11.07;;;3.70;99.90;;;;;;5054725;28;20025;-59
2021/01/05 00:55:14;;;;;;;19.75;11.05;;;3.70;99.90;;;;;;5053916;28;20060;-64
2021/01/05 00:57:40;;;;;;;19.38;10.43;;;3.70;99.90;;;;;;5054392;28;20056;-60
2021/01/05 01:00:10;;;;;;;17.40;10.05;;;3.70;99.90;;;;;;5055316;28;20025;-63
2021/01/05 01:02:35;;;;;;;18.88;10.02;;;3.80;99.90;;;;;;5054760;28;20036;-59
2021/01/05 01:05:02;;;;;;;21.42;11.38;;;3.80;99.90;;;;;;5054701;28;20017;-62
2021/01/05 01:07:28;;;;;;;23.30;11.70;;;3.80;99.90;;;;;;5054281;28;20125;-58
2021/01/05 01:09:53;;;;;;;18.88;10.18;;;3.70;99.90;;;;;;5056111;28;20065;-59
2021/01/05 01:12:22;;;;;;;20.70;11.02;;;3.60;99.90;;;;;;5037198;28;20037;-61
2021/01/05 01:14:49;;;;;;;18.02;10.02;;;3.60;99.90;;;;;;5053961;28;20025;-58
2021/01/05 01:17:16;;;;;;;19.63;10.05;;;3.70;99.90;;;;;;5053630;28;20025;-64
2021/01/05 01:19:41;;;;;;;18.27;10.32;;;3.80;99.90;;;;;;5056155;28;20083;-60
2021/01/05 01:22:08;;;;;;;19.02;10.48;;;3.60;99.90;;;;;;5054374;28;20025;-60
2021/01/05 01:24:33;;;;;;;19.58;11.10;;;3.60;99.90;;;;;;5055394;28;20021;-63
2021/01/05 01:26:59;;;;;;;16.50;9.95;;;3.60;99.90;;;;;;5055673;28;20111;-61
2021/01/05 01:29:27;;;;;;;17.95;11.18;;;3.60;99.90;;;;;;5055306;28;20021;-65
2021/01/05 01:31:54;;;;;;;18.40;10.18;;;3.60;99.90;;;;;;5055485;28;20103;-60
2021/01/05 01:34:22;;;;;;;21.33;11.13;;;3.70;99.90;;;;;;5053869;28;20025;-58
2021/01/05 01:36:59;;;;;;;19.65;10.38;;;3.70;99.90;;;;;;5054937;28;20120;-59
2021/01/05 01:39:26;;;;;;;17.48;9.95;;;3.60;99.90;;;;;;5053189;28;20090;-58
2021/01/05 01:41:52;;;;;;;18.83;10.43;;;3.70;99.90;;;;;;5053763;28;20505;-58
2021/01/05 01:44:23;;;;;;;17.35;10.38;;;3.60;99.90;;;;;;5053006;28;20024;-64
2021/01/05 01:46:51;;;;;;;16.35;9.30;;;3.60;99.90;;;;;;5053343;28;20043;-57
2021/01/05 01:49:17;;;;;;;18.42;10.75;;;3.70;99.90;;;;;;5054328;28;20043;-60
2021/01/05 01:51:44;;;;;;;16.70;9.48;;;3.70;99.90;;;;;;5055194;28;20390;-62
2021/01/05 01:54:12;;;;;;;21.42;11.60;;;3.70;99.90;;;;;;5054609;28;20048;-58
2021/01/05 01:56:56;;;;;;;19.65;10.63;;;3.70;99.90;;;;;;5054675;28;20056;-59
2021/01/05 01:59:56;;;;;;;19.40;10.48;;;3.70;99.90;;;;;;5055874;28;20467;-60
2021/01/05 02:02:46;;;;;;;19.23;11.00;;;3.60;99.90;;;;;;5056281;28;20040;-59
2021/01/05 02:05:15;;;;;;;19.67;11.77;;;3.50;99.90;;;;;;5055055;28;20061;-61
2021/01/05 02:08:11;;;;;;;16.35;9.63;;;3.50;99.90;;;;;;5055926;28;20029;-60
2021/01/05 02:11:17;;;;;;;18.48;10.27;;;3.60;99.90;;;;;;5054902;28;20609;-59
2021/01/05 02:14:21;;;;;;;18.38;10.43;;;3.50;99.90;;;;;;5034358;28;20495;-60
2021/01/05 02:17:15;;;;;;;19.58;9.93;;;3.50;99.90;;;;;;5054201;28;20128;-58
2021/01/05 02:19:47;;;;;;;15.50;9.77;;;3.50;99.90;;;;;;5055546;28;20021;-63
2021/01/05 02:22:35;;;;;;;17.95;9.40;;;3.60;99.90;;;;;;5055141;28;20037;-58
2021/01/05 02:25:29;;;;;;;18.63;9.88;;;3.60;99.90;;;;;;5054818;28;20032;-62
2021/01/05 02:28:00;;;;;;;20.48;10.45;;;3.60;99.90;;;;;;5055530;28;20067;-62
2021/01/05 02:30:34;;;;;;;18.95;9.20;;;3.30;99.90;;;;;;5053224;28;20086;-58
2021/01/05 02:33:21;;;;;;;16.08;9.75;;;3.30;99.90;;;;;;5053359;28;20037;-59
2021/01/05 02:36:16;;;;;;;17.65;10.38;;;3.40;99.90;;;;;;5053800;28;20055;-58
2021/01/05 02:39:16;;;;;;;15.40;9.45;;;3.40;99.90;;;;;;5052110;28;20025;-58
2021/01/05 02:42:08;;;;;;;16.80;9.10;;;3.50;99.90;;;;;;5052143;28;20044;-59
2021/01/05 02:45:03;;;;;;;17.77;9.73;;;3.50;99.90;;;;;;5053161;28;20032;-69
2021/01/05 02:47:41;;;;;;;15.35;9.60;;;3.50;99.90;;;;;;5053303;28;20036;-58
2021/01/05 02:50:19;;;;;;;14.43;9.15;;;3.50;99.90;;;;;;5055136;28;20025;-59
2021/01/05 02:53:36;;;;;;;14.68;9.18;;;3.60;99.90;;;;;;5056277;28;20063;-62
2021/01/05 02:56:23;;;;;;;14.25;8.43;;;3.50;99.90;;;;;;5032366;28;20057;-58
2021/01/05 02:59:11;;;;;;;16.10;8.85;;;3.60;99.90;;;;;;5015162;28;20045;-62
2021/01/05 03:02:06;;;;;;;16.67;9.63;;;3.50;99.90;;;;;;5013809;28;20042;-57
2021/01/05 03:04:32;;;;;;;12.68;8.35;;;3.30;99.90;;;;;;5015648;28;20033;-63
2021/01/05 03:07:03;;;;;;;12.55;8.55;;;3.40;99.90;;;;;;5031565;28;20131;-57
2021/01/05 03:09:43;;;;;;;15.73;10.18;;;3.50;99.90;;;;;;5015640;28;20075;-59
2021/01/05 03:12:33;;;;;;;18.13;8.68;;;3.50;99.90;;;;;;5031566;28;20046;-58
2021/01/05 03:15:25;;;;;;;15.65;8.80;;;3.50;99.90;;;;;;5031099;28;20036;-58
2021/01/05 03:17:57;;;;;;;13.88;9.00;;;3.50;99.90;;;;;;5014819;28;20053;-58
2021/01/05 03:20:29;;;;;;;17.52;8.70;;;3.50;99.90;;;;;;5030483;28;20495;-60
2021/01/05 03:23:01;;;;;;;14.98;8.50;;;3.50;99.90;;;;;;5031096;28;20521;-58
2021/01/05 03:25:31;;;;;;;15.27;9.63;;;3.50;99.90;;;;;;5030455;28;20041;-58
2021/01/05 03:28:00;;;;;;;14.50;9.10;;;3.50;99.90;;;;;;5014143;28;20021;-58
2021/01/05 03:30:44;;;;;;;13.82;8.35;;;3.60;99.90;;;;;;5030539;28;20485;-58
2021/01/05 03:33:11;;;;;;;13.70;8.80;;;3.60;99.90;;;;;;5053195;28;20394;-58
2021/01/05 03:35:37;;;;;;;14.15;8.45;;;3.50;99.90;;;;;;5052435;28;20036;-58
2021/01/05 03:38:02;;;;;;;14.57;8.45;;;3.50;99.90;;;;;;5052631;28;20029;-59
2021/01/05 03:40:28;;;;;;;13.85;8.27;;;3.40;99.90;;;;;;5052593;28;20040;-57
2021/01/05 03:42:54;;;;;;;13.38;8.60;;;3.50;99.90;;;;;;5053227;28;20056;-58
2021/01/05 03:45:25;;;;;;;14.70;8.73;;;3.50;99.90;;;;;;5051812;28;20025;-58
2021/01/05 03:47:52;;;;;;;14.98;9.75;;;3.40;99.90;;;;;;5053562;28;20117;-58
2021/01/05 03:50:18;;;;;;;15.13;8.27;;;3.40;99.90;;;;;;5052257;28;20033;-59
2021/01/05 03:52:44;;;;;;;15.65;8.15;;;3.40;99.90;;;;;;5053454;28;20127;-60
2021/01/05 03:55:11;;;;;;;16.20;8.70;;;3.50;99.90;;;;;;5052549;28;20087;-60
2021/01/05 03:57:37;;;;;;;20.35;8.40;;;3.50;99.90;;;;;;5052062;28;20360;-60
2021/01/05 04:00:08;;;;;;;14.45;8.82;;;3.40;99.90;;;;;;5052304;28;20032;-59
2021/01/05 04:02:35;;;;;;;14.30;7.72;;;3.50;99.90;;;;;;5051469;28;20029;-58
2021/01/05 04:05:00;;;;;;;12.88;7.07;;;3.50;99.90;;;;;;5053171;28;20517;-59
2021/01/05 04:07:26;;;;;;;12.80;7.88;;;3.40;99.90;;;;;;5050959;28;20032;-58
2021/01/05 04:09:52;;;;;;;15.70;9.25;;;3.30;99.90;;;;;;5051349;28;20459;-60
2021/01/05 04:12:18;;;;;;;17.23;8.70;;;3.40;99.90;;;;;;5050925;28;20037;-58
2021/01/05 04:14:44;;;;;;;13.88;8.40;;;3.40;99.90;;;;;;5051655;28;20037;-60
2021/01/05 04:17:10;;;;;;;12.45;8.15;;;3.30;99.90;;;;;;5052324;28;20094;-60
2021/01/05 04:19:35;;;;;;;16.80;9.88;;;3.40;99.90;;;;;;5052552;28;20033;-60
2021/01/05 04:22:01;;;;;;;17.70;10.30;;;3.40;99.90;;;;;;5056779;28;20112;-60
2021/01/05 04:24:27;;;;;;;19.42;9.13;;;3.50;99.90;;;;;;5055310;28;20029;-58
2021/01/05 04:26:52;;;;;;;16.45;8.10;;;3.50;99.90;;;;;;5055260;28;20025;-60
2021/01/05 04:29:18;;;;;;;15.68;8.93;;;3.60;99.90;;;;;;5055145;28;20021;-59
2021/01/05 04:31:44;;;;;;;15.90;8.88;;;3.50;99.90;;;;;;5055325;28;20037;-58
2021/01/05 04:34:12;;;;;;;14.48;8.70;;;3.60;99.90;;;;;;5054841;28;20074;-61
2021/01/05 04:36:38;;;;;;;21.35;11.20;;;3.60;99.90;;;;;;5055396;28;20025;-58
2021/01/05 04:39:06;;;;;;;16.27;9.90;;;3.60;99.90;;;;;;5055164;28;20021;-58
2021/01/05 04:41:54;;;;;;;18.17;10.35;;;3.60;99.90;;;;;;5055190;28;20036;-58
2021/01/05 04:44:24;;;;;;;21.48;9.80;;;3.60;99.90;;;;;;5054477;28;20075;-61
2021/01/05 04:47:01;;;;;;;17.13;9.90;;;3.50;99.90;;;;;;5055121;28;20036;-58
2021/01/05 04:49:49;;;;;;;17.50;9.45;;;3.70;99.90;;;;;;5054069;28;20033;-63
2021/01/05 04:52:19;;;;;;;19.83;9.77;;;3.60;99.90;;;;;;5054157;28;20040;-58
2021/01/05 04:54:50;;;;;;;18.98;9.73;;;3.60;99.90;;;;;;5054844;28;20128;-57
2021/01/05 04:57:18;;;;;;;26.52;10.18;;;3.50;99.90;;;;;;5054474;28;20025;-58
2021/01/05 04:59:49;;;;;;;15.82;9.82;;;3.50;99.90;;;;;;5054031;28;20071;-58
2021/01/05 05:02:21;;;;;;;16.40;9.90;;;3.60;99.90;;;;;;5055602;28;20060;-61
2021/01/05 05:04:56;;;;;;;17.92;9.90;;;3.70;99.90;;;;;;5053819;28;20293;-60
2021/01/05 05:07:30;;;;;;;15.02;9.05;;;3.70;99.90;;;;;;5055860;28;20048;-60
2021/01/05 05:10:05;;;;;;;17.75;10.00;;;3.70;99.90;;;;;;5055193;28;20478;-62
2021/01/05 05:12:59;;;;;;;17.75;10.10;;;3.70;99.90;;;;;;5053507;28;20060;-58
2021/01/05 05:15:43;;;;;;;19.33;11.23;;;3.70;99.90;;;;;;5054038;28;20071;-58
2021/01/05 05:18:37;;;;;;;17.92;9.98;;;3.70;99.90;;;;;;5054347;28;20090;-59
2021/01/05 05:21:24;;;;;;;16.45;9.63;;;3.80;99.90;;;;;;5054971;28;20032;-59
2021/01/05 05:23:53;;;;;;;18.75;11.10;;;3.60;99.90;;;;;;5054581;28;20029;-61
2021/01/05 05:26:47;;;;;;;19.35;9.88;;;3.60;99.90;;;;;;5053924;28;20048;-58
2021/01/05 05:29:24;;;;;;;18.88;10.02;;;3.70;99.90;;;;;;5055163;28;20033;-59
2021/01/05 05:31:50;;;;;;;19.75;11.27;;;3.70;99.90;;;;;;5052459;28;20037;-59
2021/01/05 05:34:36;;;;;;;16.13;10.18;;;3.60;99.90;;;;;;5055243;28;20100;-59
2021/01/05 05:37:20;;;;;;;20.77;11.15;;;3.60;99.90;;;;;;5053736;28;20028;-59
2021/01/05 05:40:36;;;;;;;24.50;11.95;;;3.80;99.90;;;;;;5054349;28;20036;-59
2021/01/05 05:43:12;;;;;;;23.05;12.45;;;3.70;99.90;;;;;;5036444;28;20090;-58
2021/01/05 05:45:45;;;;;;;22.10;12.32;;;3.70;99.90;;;;;;5053066;28;20033;-60
2021/01/05 05:48:33;;;;;;;19.98;12.13;;;3.80;99.90;;;;;;5052098;28;20386;-58
2021/01/05 05:51:24;;;;;;;21.52;10.77;;;3.80;99.90;;;;;;5054331;28;20036;-59
2021/01/05 05:54:00;;;;;;;21.97;11.47;;;3.80;99.90;;;;;;5051894;28;20033;-60
2021/01/05 05:56:45;;;;;;;19.48;11.68;;;3.70;99.90;;;;;;5053349;28;20667;-59
2021/01/05 05:59:11;;;;;;;20.33;12.32;;;3.80;99.90;;;;;;5052836;28;20033;-58
2021/01/05 06:01:40;;;;;;;22.73;12.80;;;3.90;99.90;;;;;;5052721;28;20466;-59
2021/01/05 06:04:07;;;;;;;19.60;11.48;;;3.80;99.90;;;;;;5056631;28;20480;-66
2021/01/05 06:06:35;;;;;;;23.20;12.27;;;3.80;99.90;;;;;;5057829;28;20515;-59
2021/01/05 06:09:02;;;;;;;19.15;12.05;;;3.70;99.90;;;;;;5064547;28;20040;-59
2021/01/05 06:11:27;;;;;;;24.77;13.15;;;3.70;99.90;;;;;;5065023;28;20116;-58
2021/01/05 06:13:53;;;;;;;22.73;12.82;;;3.60;99.90;;;;;;5068272;28;20052;-58
2021/01/05 06:16:19;;;;;;;21.70;12.50;;;3.60;99.90;;;;;;5057333;28;20021;-60
2021/01/05 06:18:44;;;;;;;20.35;12.18;;;3.60;99.90;;;;;;5059655;28;20044;-58
2021/01/05 06:21:10;;;;;;;24.88;13.77;;;3.50;99.90;;;;;;5052580;28;20425;-58
2021/01/05 06:23:35;;;;;;;25.58;13.32;;;3.50;99.90;;;;;;5052963;28;20025;-59
2021/01/05 06:26:02;;;;;;;25.83;13.75;;;3.50;99.90;;;;;;5052791;28;20121;-58
2021/01/05 06:28:28;;;;;;;23.23;12.57;;;3.50;99.90;;;;;;5053613;28;20028;-60
2021/01/05 06:30:53;;;;;;;24.15;13.77;;;3.60;99.90;;;;;;5052020;28;20437;-59
2021/01/05 06:33:19;;;;;;;21.25;12.38;;;3.50;99.90;;;;;;5052816;28;20461;-60
2021/01/05 06:35:45;;;;;;;20.85;12.45;;;3.60;99.90;;;;;;5052893;28;20113;-59
2021/01/05 06:38:10;;;;;;;22.50;13.40;;;3.60;99.90;;;;;;5052323;28;20029;-61
2021/01/05 06:40:36;;;;;;;22.15;13.02;;;3.70;99.90;;;;;;5052959;28;20025;-58
2021/01/05 06:43:02;;;;;;;25.30;13.27;;;3.60;99.90;;;;;;5053029;28;20031;-59
2021/01/05 06:45:31;;;;;;;23.23;12.57;;;3.70;99.90;;;;;;5052129;28;20056;-61
2021/01/05 06:47:59;;;;;;;24.13;13.35;;;3.60;99.90;;;;;;5052901;28;20075;-58
2021/01/05 06:50:27;;;;;;;23.75;13.55;;;3.60;99.90;;;;;;5053933;28;20058;-59
2021/01/05 06:52:53;;;;;;;26.02;12.88;;;3.70;99.90;;;;;;5052754;28;20041;-64
2021/01/05 06:55:19;;;;;;;23.05;12.73;;;3.70;99.90;;;;;;5053015;28;20060;-58
2021/01/05 06:57:45;;;;;;;23.75;12.55;;;3.60;99.90;;;;;;5052935;28;20025;-59
2021/01/05 07:00:18;;;;;;;21.58;12.18;;;3.70;99.90;;;;;;5052393;28;20052;-62
2021/01/05 07:02:44;;;;;;;22.75;12.73;;;3.70;99.90;;;;;;5053075;28;20071;-60
2021/01/05 07:05:10;;;;;;;21.08;12.70;;;3.70;99.90;;;;;;5053138;28;20102;-59
2021/01/05 07:07:36;;;;;;;19.33;11.00;;;3.80;99.90;;;;;;5051334;28;20493;-59
2021/01/05 07:10:03;;;;;;;25.45;13.55;;;3.80;99.90;;;;;;5051513;28;20107;-58
2021/01/05 07:12:29;;;;;;;26.48;14.32;;;3.70;99.90;;;;;;5051749;28;20124;-62
2021/01/05 07:14:54;;;;;;;23.88;13.75;;;3.80;99.90;;;;;;5052372;28;20280;-58
2021/01/05 07:17:20;;;;;;;21.10;12.23;;;3.70;99.90;;;;;;5053199;28;20104;-60
2021/01/05 07:19:46;;;;;;;22.13;12.20;;;3.70;99.90;;;;;;5053595;28;20451;-62
2021/01/05 07:22:11;;;;;;;20.83;12.00;;;3.70;99.90;;;;;;5053218;28;20059;-61
2021/01/05 07:24:37;;;;;;;26.95;14.85;;;3.60;99.90;;;;;;5054097;28;20025;-63
2021/01/05 07:27:04;;;;;;;21.45;11.15;;;3.60;99.90;;;;;;5054911;28;20087;-63
2021/01/05 07:29:30;;;;;;;23.98;14.10;;;3.80;99.90;;;;;;5054010;28;20089;-65
2021/01/05 07:31:55;;;;;;;22.98;13.07;;;3.70;99.90;;;;;;5054401;28;20290;-59
2021/01/05 07:34:21;;;;;;;22.50;13.20;;;3.80;99.90;;;;;;5054337;28;20117;-60
2021/01/05 07:37:11;;;;;;;23.88;12.77;;;3.80;99.90;;;;;;5053372;28;20072;-60
2021/01/05 07:39:37;;;;;;;24.02;13.50;;;3.70;99.90;;;;;;5053391;28;20029;-68
2021/01/05 07:42:28;;;;;;;22.80;12.43;;;3.60;99.90;;;;;;5052268;28;20497;-59
2021/01/05 07:44:56;;;;;;;26.13;13.95;;;3.70;99.90;;;;;;5051440;28;20387;-59
2021/01/05 07:47:27;;;;;;;22.02;14.05;;;3.70;99.90;;;;;;5052357;28;20033;-60
2021/01/05 07:49:53;;;;;;;24.90;13.27;;;3.70;99.90;;;;;;5053588;28;20029;-63
2021/01/05 07:52:35;;;;;;;23.38;13.18;;;3.80;99.90;;;;;;5054520;28;20287;-59
2021/01/05 07:55:04;;;;;;;20.92;12.63;;;3.70;99.90;;;;;;5060330;28;20459;-61
2021/01/05 07:57:50;;;;;;;25.25;13.48;;;3.80;99.90;;;;;;5058555;28;20134;-58
2021/01/05 08:00:23;;;;;;;23.15;12.82;;;3.70;99.90;;;;;;5058223;28;20021;-61
2021/01/05 08:02:49;;;;;;;23.20;13.75;;;3.70;99.90;;;;;;5057591;28;20075;-67
2021/01/05 08:05:18;;;;;;;26.70;14.05;;;3.70;99.90;;;;;;5058114;28;20483;-60
2021/01/05 08:07:44;;;;;;;27.67;14.23;;;3.70;99.90;;;;;;5058384;28;20033;-60
2021/01/05 08:10:20;;;;;;;24.15;13.60;;;3.80;99.90;;;;;;5058036;28;20029;-63
2021/01/05 08:12:47;;;;;;;21.55;12.32;;;3.80;99.90;;;;;;5058514;28;20048;-59
2021/01/05 08:15:18;;;;;;;25.55;13.55;;;3.70;99.90;;;;;;5057477;28;20029;-60
2021/01/05 08:17:44;;;;;;;27.20;14.55;;;3.70;99.90;;;;;;5057325;28;20033;-59
2021/01/05 08:20:10;;;;;;;29.13;14.98;;;3.80;99.90;;;;;;5058682;28;20036;-60
2021/01/05 08:22:36;;;;;;;26.80;14.20;;;3.90;99.90;;;;;;5057725;28;20033;-59
2021/01/05 08:25:02;;;;;;;28.73;14.35;;;3.80;99.90;;;;;;5056659;28;20359;-58
2021/01/05 08:27:28;;;;;;;26.02;14.02;;;3.90;99.90;;;;;;5058686;28;20143;-60
2021/01/05 08:29:53;;;;;;;26.65;14.23;;;3.90;99.90;;;;;;5058346;28;20434;-59
2021/01/05 08:32:19;;;;;;;30.27;16.42;;;3.90;99.90;;;;;;5057585;28;20438;-59
2021/01/05 08:34:45;;;;;;;28.13;14.55;;;3.90;99.90;;;;;;5058203;28;20032;-60
2021/01/05 08:37:11;;;;;;;27.08;14.95;;;3.90;99.90;;;;;;5058296;28;20374;-61
2021/01/05 08:39:37;;;;;;;30.25;15.27;;;3.80;99.90;;;;;;5058823;28;20033;-60
2021/01/05 08:42:03;;;;;;;29.42;15.75;;;3.90;99.90;;;;;;5058474;28;20033;-63
2021/01/05 08:44:28;;;;;;;27.40;14.73;;;4.00;99.90;;;;;;5058176;28;20112;-62
2021/01/05 08:46:59;;;;;;;33.42;15.30;;;4.00;99.90;;;;;;5057670;28;20083;-64
2021/01/05 08:49:25;;;;;;;27.25;16.15;;;4.10;99.90;;;;;;5059702;28;20032;-64
2021/01/05 08:51:52;;;;;;;27.50;14.02;;;4.10;99.90;;;;;;5058292;28;20394;-62
2021/01/05 08:54:18;;;;;;;26.80;14.27;;;4.10;99.90;;;;;;5059264;28;20045;-60
2021/01/05 08:56:44;;;;;;;28.40;14.88;;;4.10;99.90;;;;;;5040554;28;20063;-60
2021/01/05 08:59:09;;;;;;;27.17;13.70;;;4.10;99.90;;;;;;5057616;28;20029;-60
2021/01/05 09:01:35;;;;;;;25.60;14.90;;;4.00;99.90;;;;;;5058441;28;20028;-62
2021/01/05 09:04:01;;;;;;;29.02;14.50;;;3.90;99.90;;;;;;5058263;28;20029;-59
2021/01/05 09:06:26;;;;;;;29.13;14.68;;;3.90;99.90;;;;;;5053775;28;20025;-59
2021/01/05 09:08:54;;;;;;;24.13;15.43;;;3.90;99.90;;;;;;5053932;28;20021;-61
2021/01/05 09:11:23;;;;;;;33.15;17.13;;;4.00;99.90;;;;;;5056095;28;20057;-65
2021/01/05 09:13:50;;;;;;;27.05;14.88;;;3.90;99.90;;;;;;5054234;28;20025;-68
2021/01/05 09:16:28;;;;;;;27.02;14.70;;;3.90;99.90;;;;;;5056551;28;20417;-61
2021/01/05 09:18:54;;;;;;;29.95;16.35;;;3.90;99.90;;;;;;5054218;28;20051;-59
2021/01/05 09:21:22;;;;;;;32.03;16.27;;;4.00;99.90;;;;;;5054331;28;20071;-60
2021/01/05 09:23:53;;;;;;;26.20;15.00;;;4.00;99.90;;;;;;5055557;28;20029;-63
2021/01/05 09:26:21;;;;;;;26.05;14.73;;;4.00;99.90;;;;;;5055297;28;20025;-61
2021/01/05 09:28:46;;;;;;;27.98;16.23;;;4.10;99.90;;;;;;5054578;28;20078;-58
2021/01/05 09:31:12;;;;;;;31.42;17.77;;;4.00;99.90;;;;;;5055558;28;20474;-60
2021/01/05 09:33:38;;;;;;;27.00;14.23;;;4.10;99.90;;;;;;5054656;28;20021;-60
2021/01/05 09:36:04;;;;;;;27.60;14.82;;;4.20;99.90;;;;;;5053081;28;20064;-60
2021/01/05 09:38:29;;;;;;;27.95;14.00;;;4.20;99.90;;;;;;5053643;28;20028;-59
2021/01/05 09:40:55;;;;;;;28.25;14.80;;;4.30;99.90;;;;;;5053986;28;20401;-64
2021/01/05 09:43:21;;;;;;;25.77;14.40;;;4.30;99.90;;;;;;5054695;28;20478;-58
2021/01/05 09:45:46;;;;;;;28.50;14.35;;;4.30;99.90;;;;;;5053779;28;20383;-58
2021/01/05 09:48:14;;;;;;;25.45;14.50;;;4.30;99.90;;;;;;5054764;28;20083;-60
2021/01/05 09:50:42;;;;;;;27.30;15.07;;;4.30;99.90;;;;;;5052903;28;20025;-65
2021/01/05 09:53:08;;;;;;;23.75;13.70;;;4.40;99.90;;;;;;5052699;28;20029;-60
2021/01/05 09:55:34;;;;;;;26.55;14.82;;;4.40;99.90;;;;;;5052672;28;20494;-59
2021/01/05 09:58:01;;;;;;;27.15;13.55;;;4.50;99.90;;;;;;5054178;28;20036;-65
2021/01/05 10:00:27;;;;;;;31.38;14.68;;;4.60;99.90;;;;;;5054048;28;20021;-59
2021/01/05 10:02:53;;;;;;;23.77;13.60;;;4.60;99.90;;;;;;5052449;28;20044;-60
2021/01/05 10:05:19;;;;;;;21.73;12.93;;;4.60;99.90;;;;;;5053165;28;20021;-59
2021/01/05 10:07:46;;;;;;;23.23;13.48;;;4.70;99.90;;;;;;5054541;28;20021;-60
2021/01/05 10:10:23;;;;;;;24.42;13.82;;;4.80;99.90;;;;;;5054409;28;20122;-59
2021/01/05 10:12:49;;;;;;;22.08;12.50;;;4.60;99.90;;;;;;5053355;28;20126;-60
2021/01/05 10:15:17;;;;;;;21.25;12.38;;;4.60;99.90;;;;;;5053860;28;20064;-60
2021/01/05 10:17:43;;;;;;;20.20;12.93;;;4.60;99.90;;;;;;5051671;28;20029;-59
2021/01/05 10:20:12;;;;;;;18.92;12.30;;;4.60;99.90;;;;;;5053471;28;20142;-60
2021/01/05 10:22:38;;;;;;;19.33;11.43;;;4.70;99.90;;;;;;5053970;28;20029;-57
2021/01/05 10:25:09;;;;;;;18.45;10.52;;;4.60;99.90;;;;;;5053548;28;20074;-60
2021/01/05 10:27:34;;;;;;;16.33;10.73;;;4.50;99.90;;;;;;5053073;28;20032;-60
2021/01/05 10:30:00;;;;;;;17.52;10.30;;;4.50;99.90;;;;;;5054140;28;20100;-63
2021/01/05 10:32:26;;;;;;;19.00;10.23;;;4.50;99.90;;;;;;5053954;28;20037;-60
2021/01/05 10:34:52;;;;;;;19.20;10.32;;;4.50;99.90;;;;;;5051668;28;20021;-59
2021/01/05 10:37:17;;;;;;;18.73;10.45;;;4.60;99.90;;;;;;5053531;28;20025;-59
2021/01/05 10:39:44;;;;;;;19.00;10.13;;;4.70;99.90;;;;;;5052374;28;20024;-61
2021/01/05 10:42:09;;;;;;;16.27;11.02;;;4.50;99.90;;;;;;5053213;28;20108;-63
2021/01/05 10:44:35;;;;;;;17.10;9.25;;;4.60;99.90;;;;;;5052451;28;20426;-60
2021/01/05 10:47:04;;;;;;;13.60;8.80;;;4.50;99.90;;;;;;5052782;28;20475;-60
2021/01/05 10:49:30;;;;;;;13.02;8.82;;;4.50;99.90;;;;;;5052030;28;20033;-59
2021/01/05 10:51:58;;;;;;;17.83;10.18;;;4.50;99.90;;;;;;5051203;28;20094;-60
2021/01/05 10:54:27;;;;;;;16.30;10.07;;;4.40;99.90;;;;;;5051501;28;20045;-58
2021/01/05 10:57:01;;;;;;;16.33;9.45;;;4.40;99.90;;;;;;5051723;28;20442;-60
2021/01/05 10:59:27;;;;;;;15.98;9.88;;;4.50;99.90;;;;;;5052234;28;20029;-60
2021/01/05 11:01:56;;;;;;;16.67;9.75;;;4.60;99.90;;;;;;5051586;28;20140;-59
2021/01/05 11:04:23;;;;;;;16.35;10.00;;;4.60;99.90;;;;;;5052029;28;20061;-60
2021/01/05 11:06:52;;;;;;;17.50;10.77;;;4.50;99.90;;;;;;5053478;28;20025;-60
2021/01/05 11:09:18;;;;;;;17.23;10.88;;;4.50;99.90;;;;;;5051757;28;20025;-60
2021/01/05 11:11:44;;;;;;;21.15;11.32;;;4.50;99.90;;;;;;5051562;28;20043;-59
2021/01/05 11:14:10;;;;;;;27.05;11.85;;;4.50;99.90;;;;;;5050874;28;20029;-63
2021/01/05 11:16:35;;;;;;;20.08;11.93;;;4.50;99.90;;;;;;5051378;28;20059;-59
2021/01/05 11:19:01;;;;;;;24.10;13.43;;;4.50;99.90;;;;;;5052092;28;20037;-65
2021/01/05 11:21:27;;;;;;;22.85;12.75;;;4.60;99.90;;;;;;5053194;28;20426;-58
2021/01/05 11:23:52;;;;;;;20.10;12.07;;;4.60;99.90;;;;;;5052436;28;20021;-59
2021/01/05 11:26:18;;;;;;;16.67;10.35;;;4.60;99.90;;;;;;5052955;28;20056;-61
2021/01/05 11:28:43;;;;;;;18.05;10.52;;;4.70;99.90;;;;;;5051444;28;20037;-59
2021/01/05 11:31:09;;;;;;;17.60;10.25;;;4.70;99.90;;;;;;5052073;28;20127;-68
2021/01/05 11:33:35;;;;;;;18.92;10.48;;;4.80;99.90;;;;;;5054372;28;20492;-61
2021/01/05 11:36:00;;;;;;;18.27;10.52;;;4.80;99.90;;;;;;5054187;28;20064;-59
2021/01/05 11:38:26;;;;;;;16.90;9.68;;;4.80;99.90;;;;;;5053389;28;20078;-61
2021/01/05 11:40:52;;;;;;;19.92;10.80;;;4.60;99.90;;;;;;5051857;28;20028;-62
2021/01/05 11:43:18;;;;;;;19.70;12.30;;;4.70;99.90;;;;;;5052637;28;20039;-60
2021/01/05 11:45:44;;;;;;;17.15;10.23;;;4.70;99.90;;;;;;5053888;28;20032;-58
2021/01/05 11:48:10;;;;;;;15.57;8.98;;;4.70;99.90;;;;;;5052536;28;20029;-60
2021/01/05 11:50:35;;;;;;;23.90;9.73;;;4.80;99.90;;;;;;5051304;28;20029;-59
2021/01/05 11:53:01;;;;;;;14.40;9.82;;;4.90;99.90;;;;;;5050460;28;20021;-59
2021/01/05 11:55:27;;;;;;;18.27;9.73;;;4.90;99.90;;;;;;5050797;28;20053;-58
2021/01/05 11:57:53;;;;;;;15.85;9.20;;;5.00;99.90;;;;;;5050540;28;20037;-65
2021/01/05 12:00:20;;;;;;;18.02;9.75;;;4.80;99.90;;;;;;5052302;28;20021;-59
2021/01/05 12:02:46;;;;;;;14.57;9.32;;;4.80;99.90;;;;;;5052432;28;20037;-60
2021/01/05 12:05:13;;;;;;;17.35;9.63;;;5.00;99.90;;;;;;5051365;28;20049;-59
2021/01/05 12:07:39;;;;;;;19.17;9.80;;;4.80;99.90;;;;;;5051328;28;20025;-60
2021/01/05 12:10:06;;;;;;;17.50;9.70;;;4.90;99.90;;;;;;5050436;28;20041;-60
2021/01/05 12:12:32;;;;;;;17.75;10.05;;;4.90;99.90;;;;;;5051148;28;20120;-60
2021/01/05 12:14:58;;;;;;;17.67;11.10;;;4.90;99.90;;;;;;5049363;28;20112;-60
2021/01/05 12:17:26;;;;;;;16.85;10.07;;;4.80;99.90;;;;;;5051716;28;20108;-58
2021/01/05 12:19:52;;;;;;;16.13;10.27;;;4.80;99.90;;;;;;5050384;28;20061;-60
2021/01/05 12:22:18;;;;;;;17.67;10.65;;;4.80;99.90;;;;;;5050893;28;20099;-60
2021/01/05 12:24:44;;;;;;;16.35;11.05;;;4.90;99.90;;;;;;5051532;28;20040;-59
2021/01/05 12:27:12;;;;;;;13.55;8.80;;;5.00;99.90;;;;;;5051013;28;20485;-62
2021/01/05 12:29:42;;;;;;;16.15;9.95;;;4.90;99.90;;;;;;5050838;28;20470;-60
2021/01/05 12:32:14;;;;;;;18.17;10.07;;;5.00;99.90;;;;;;5049793;28;20033;-59
2021/01/05 12:34:43;;;;;;;21.33;12.15;;;5.00;99.90;;;;;;5049859;28;20083;-59
2021/01/05 12:37:15;;;;;;;16.58;10.10;;;4.90;99.90;;;;;;5049436;28;20040;-59
2021/01/05 12:39:41;;;;;;;19.23;9.70;;;4.90;99.90;;;;;;5054577;28;20075;-59
2021/01/05 12:42:14;;;;;;;16.23;10.45;;;4.90;99.90;;;;;;5075621;28;20417;-59
2021/01/05 12:44:40;;;;;;;19.02;11.63;;;4.90;99.90;;;;;;5057999;28;20029;-64
2021/01/05 12:47:06;;;;;;;21.88;11.23;;;5.00;99.90;;;;;;5067796;28;20033;-59
2021/01/05 12:49:32;;;;;;;17.65;10.85;;;5.00;99.90;;;;;;5053714;28;20083;-61
2021/01/05 12:52:06;;;;;;;17.55;10.73;;;5.00;99.90;;;;;;5054832;28;20466;-68
2021/01/05 12:54:32;;;;;;;19.33;11.02;;;5.00;99.90;;;;;;5054188;28;20049;-60
2021/01/05 12:57:03;;;;;;;15.20;9.70;;;5.10;99.90;;;;;;5053476;28;20478;-68